sensor_id;sensor_type;location;lat;lon;timestamp;pressure;altitude;pressure_sealevel;temperature;humidity
21828;BME280;11076;47.942;11.804;2023-07-31T00:01:41;94525.25;;;16.94;75.01
21828;BME280;11076;47.942;11.804;2023-07-31T00:06:43;94515.78;;;16.92;74.74
21828;BME280;11076;47.942;11.804;2023-07-31T00:11:46;94522.06;;;16.75;75.47
21828;BME280;11076;47.942;11.804;2023-07-31T00:16:48;94512.47;;;16.62;76.37
21828;BME280;11076;47.942;11.804;2023-07-31T00:21:52;94505.19;;;16.63;76.56
21828;BME280;11076;47.942;11.804;2023-07-31T00:26:54;94497.81;;;16.31;77.07
21828;BME280;11076;47.942;11.804;2023-07-31T00:31:56;94497.91;;;15.97;77.65
21828;BME280;11076;47.942;11.804;2023-07-31T00:36:59;94503.88;;;15.60;78.93
21828;BME280;11076;47.942;11.804;2023-07-31T00:42:01;94506.00;;;15.58;79.96
21828;BME280;11076;47.942;11.804;2023-07-31T00:47:04;94495.03;;;15.65;79.55
21828;BME280;11076;47.942;11.804;2023-07-31T00:52:08;94500.66;;;15.63;79.67
21828;BME280;11076;47.942;11.804;2023-07-31T00:57:11;94490.34;;;15.94;78.86
21828;BME280;11076;47.942;11.804;2023-07-31T01:02:13;94483.03;;;16.12;78.19
21828;BME280;11076;47.942;11.804;2023-07-31T01:07:24;94482.81;;;15.96;78.38
21828;BME280;11076;47.942;11.804;2023-07-31T01:12:31;94477.19;;;15.76;79.20
21828;BME280;11076;47.942;11.804;2023-07-31T01:17:33;94466.75;;;15.67;79.51
21828;BME280;11076;47.942;11.804;2023-07-31T01:33:34;94455.88;;;15.96;78.85
21828;BME280;11076;47.942;11.804;2023-07-31T01:38:38;94450.22;;;15.76;79.85
21828;BME280;11076;47.942;11.804;2023-07-31T01:43:40;94448.25;;;15.93;79.65
21828;BME280;11076;47.942;11.804;2023-07-31T01:48:43;94446.69;;;15.97;79.24
21828;BME280;11076;47.942;11.804;2023-07-31T01:53:45;94440.44;;;16.14;79.01
21828;BME280;11076;47.942;11.804;2023-07-31T01:58:47;94448.09;;;16.22;78.69
21828;BME280;11076;47.942;11.804;2023-07-31T02:03:50;94435.91;;;16.19;78.74
21828;BME280;11076;47.942;11.804;2023-07-31T02:08:52;94434.78;;;16.15;78.77
21828;BME280;11076;47.942;11.804;2023-07-31T02:13:55;94440.47;;;16.19;79.28
21828;BME280;11076;47.942;11.804;2023-07-31T02:18:57;94436.22;;;16.23;79.16
21828;BME280;11076;47.942;11.804;2023-07-31T02:24:00;94434.75;;;16.37;78.79
21828;BME280;11076;47.942;11.804;2023-07-31T02:29:03;94419.69;;;16.41;78.71
21828;BME280;11076;47.942;11.804;2023-07-31T02:34:05;94421.94;;;16.49;78.72
21828;BME280;11076;47.942;11.804;2023-07-31T02:39:08;94416.53;;;16.49;79.05
21828;BME280;11076;47.942;11.804;2023-07-31T02:44:10;94412.75;;;16.50;79.26
21828;BME280;11076;47.942;11.804;2023-07-31T02:49:15;94406.88;;;16.54;79.43
21828;BME280;11076;47.942;11.804;2023-07-31T02:54:18;94412.75;;;16.50;79.70
21828;BME280;11076;47.942;11.804;2023-07-31T02:59:22;94406.25;;;16.46;80.09
21828;BME280;11076;47.942;11.804;2023-07-31T03:04:25;94397.31;;;16.19;80.04
21828;BME280;11076;47.942;11.804;2023-07-31T03:09:27;94391.16;;;15.74;80.81
21828;BME280;11076;47.942;11.804;2023-07-31T03:14:30;94391.28;;;15.45;81.90
21828;BME280;11076;47.942;11.804;2023-07-31T03:19:32;94393.88;;;15.57;82.71
21828;BME280;11076;47.942;11.804;2023-07-31T03:24:34;94391.72;;;15.76;82.12
21828;BME280;11076;47.942;11.804;2023-07-31T03:29:37;94389.06;;;15.81;82.57
21828;BME280;11076;47.942;11.804;2023-07-31T03:34:39;94392.16;;;15.90;82.44
21828;BME280;11076;47.942;11.804;2023-07-31T03:39:42;94384.53;;;15.82;82.97
21828;BME280;11076;47.942;11.804;2023-07-31T03:44:44;94391.16;;;15.96;82.91
21828;BME280;11076;47.942;11.804;2023-07-31T03:49:47;94400.50;;;15.88;83.59
21828;BME280;11076;47.942;11.804;2023-07-31T03:54:49;94396.22;;;15.93;83.77
21828;BME280;11076;47.942;11.804;2023-07-31T03:59:52;94403.63;;;16.02;83.70
21828;BME280;11076;47.942;11.804;2023-07-31T04:04:54;94401.91;;;16.18;83.72
21828;BME280;11076;47.942;11.804;2023-07-31T04:09:57;94400.09;;;16.24;83.49
21828;BME280;11076;47.942;11.804;2023-07-31T04:14:59;94401.25;;;16.33;83.22
21828;BME280;11076;47.942;11.804;2023-07-31T04:20:02;94411.44;;;16.26;83.19
21828;BME280;11076;47.942;11.804;2023-07-31T04:25:05;94400.66;;;16.26;83.74
21828;BME280;11076;47.942;11.804;2023-07-31T04:30:08;94396.69;;;16.34;83.23
21828;BME280;11076;47.942;11.804;2023-07-31T04:35:11;94402.88;;;16.34;83.53
21828;BME280;11076;47.942;11.804;2023-07-31T04:40:15;94401.56;;;16.37;83.60
21828;BME280;11076;47.942;11.804;2023-07-31T04:45:18;94392.34;;;16.60;82.94
21828;BME280;11076;47.942;11.804;2023-07-31T04:50:20;94396.75;;;16.71;82.65
21828;BME280;11076;47.942;11.804;2023-07-31T04:55:22;94386.00;;;16.76;82.42
21828;BME280;11076;47.942;11.804;2023-07-31T05:00:25;94381.31;;;16.94;81.92
21828;BME280;11076;47.942;11.804;2023-07-31T05:05:27;94376.78;;;16.99;81.01
21828;BME280;11076;47.942;11.804;2023-07-31T05:10:29;94375.75;;;17.05;80.91
21828;BME280;11076;47.942;11.804;2023-07-31T05:15:32;94377.16;;;17.66;79.31
21828;BME280;11076;47.942;11.804;2023-07-31T05:20:34;94380.84;;;18.02;78.60
21828;BME280;11076;47.942;11.804;2023-07-31T05:25:37;94371.22;;;23.44;64.33
21828;BME280;11076;47.942;11.804;2023-07-31T05:30:39;94360.41;;;26.25;53.80
21828;BME280;11076;47.942;11.804;2023-07-31T05:35:41;94370.69;;;26.94;52.17
21828;BME280;11076;47.942;11.804;2023-07-31T05:40:44;94375.41;;;27.93;48.56
21828;BME280;11076;47.942;11.804;2023-07-31T05:45:47;94363.91;;;28.30;46.50
21828;BME280;11076;47.942;11.804;2023-07-31T05:50:49;94361.56;;;28.11;45.17
21828;BME280;11076;47.942;11.804;2023-07-31T05:55:52;94366.00;;;25.80;46.83
21828;BME280;11076;47.942;11.804;2023-07-31T06:00:54;94367.59;;;25.41;48.40
21828;BME280;11076;47.942;11.804;2023-07-31T06:05:56;94365.53;;;25.24;48.98
21828;BME280;11076;47.942;11.804;2023-07-31T06:10:59;94367.41;;;24.78;50.16
21828;BME280;11076;47.942;11.804;2023-07-31T06:16:01;94358.84;;;24.71;50.42
21828;BME280;11076;47.942;11.804;2023-07-31T06:21:08;94361.22;;;24.50;50.36
21828;BME280;11076;47.942;11.804;2023-07-31T06:26:10;94363.59;;;24.01;50.79
21828;BME280;11076;47.942;11.804;2023-07-31T06:31:13;94368.13;;;22.99;51.98
21828;BME280;11076;47.942;11.804;2023-07-31T06:36:15;94372.50;;;22.19;54.55
21828;BME280;11076;47.942;11.804;2023-07-31T06:41:18;94383.81;;;21.59;55.93
21828;BME280;11076;47.942;11.804;2023-07-31T06:46:21;94398.72;;;21.67;57.04
21828;BME280;11076;47.942;11.804;2023-07-31T06:51:23;94394.47;;;21.55;57.01
21828;BME280;11076;47.942;11.804;2023-07-31T06:56:25;94400.28;;;21.43;57.87
21828;BME280;11076;47.942;11.804;2023-07-31T07:01:28;94388.75;;;21.22;58.29
21828;BME280;11076;47.942;11.804;2023-07-31T07:06:31;94378.50;;;21.14;58.11
21828;BME280;11076;47.942;11.804;2023-07-31T07:11:33;94364.34;;;21.47;57.18
21828;BME280;11076;47.942;11.804;2023-07-31T07:21:38;94354.25;;;22.00;55.75
21828;BME280;11076;47.942;11.804;2023-07-31T07:26:42;94366.78;;;21.72;55.94
21828;BME280;11076;47.942;11.804;2023-07-31T07:31:44;94368.88;;;21.80;55.44
21828;BME280;11076;47.942;11.804;2023-07-31T07:36:46;94357.41;;;22.08;54.87
21828;BME280;11076;47.942;11.804;2023-07-31T07:41:49;94361.72;;;22.52;54.16
21828;BME280;11076;47.942;11.804;2023-07-31T07:46:51;94350.91;;;22.84;52.95
21828;BME280;11076;47.942;11.804;2023-07-31T07:51:54;94359.59;;;22.87;53.05
21828;BME280;11076;47.942;11.804;2023-07-31T07:56:56;94350.38;;;23.34;52.89
21828;BME280;11076;47.942;11.804;2023-07-31T08:01:58;94335.63;;;23.49;52.55
21828;BME280;11076;47.942;11.804;2023-07-31T08:07:01;94338.41;;;23.16;52.43
21828;BME280;11076;47.942;11.804;2023-07-31T08:12:04;94332.00;;;22.74;51.51
21828;BME280;11076;47.942;11.804;2023-07-31T08:17:07;94334.97;;;22.92;51.54
21828;BME280;11076;47.942;11.804;2023-07-31T08:22:09;94318.16;;;23.50;50.97
21828;BME280;11076;47.942;11.804;2023-07-31T08:27:12;94312.00;;;23.58;50.71
21828;BME280;11076;47.942;11.804;2023-07-31T08:32:14;94306.56;;;23.58;50.50
21828;BME280;11076;47.942;11.804;2023-07-31T08:37:16;94295.81;;;23.34;51.36
21828;BME280;11076;47.942;11.804;2023-07-31T08:42:20;94308.44;;;22.97;51.08
21828;BME280;11076;47.942;11.804;2023-07-31T08:47:23;94300.25;;;23.16;49.25
21828;BME280;11076;47.942;11.804;2023-07-31T08:52:26;94299.50;;;23.85;48.63
21828;BME280;11076;47.942;11.804;2023-07-31T08:57:28;94306.16;;;23.79;49.54
21828;BME280;11076;47.942;11.804;2023-07-31T09:02:38;94309.00;;;23.13;51.21
21828;BME280;11076;47.942;11.804;2023-07-31T09:07:45;94300.22;;;23.02;50.97
21828;BME280;11076;47.942;11.804;2023-07-31T09:12:55;94296.63;;;22.69;51.35
21828;BME280;11076;47.942;11.804;2023-07-31T09:18:00;94295.28;;;23.18;51.57
21828;BME280;11076;47.942;11.804;2023-07-31T09:23:11;94293.19;;;23.29;51.38
21828;BME280;11076;47.942;11.804;2023-07-31T09:28:14;94301.78;;;23.36;50.04
21828;BME280;11076;47.942;11.804;2023-07-31T09:33:18;94296.81;;;23.25;51.51
21828;BME280;11076;47.942;11.804;2023-07-31T09:38:20;94292.91;;;23.72;51.04
21828;BME280;11076;47.942;11.804;2023-07-31T09:43:23;94285.13;;;23.93;50.19
21828;BME280;11076;47.942;11.804;2023-07-31T09:48:26;94281.00;;;23.96;49.34
21828;BME280;11076;47.942;11.804;2023-07-31T09:53:29;94279.50;;;24.26;50.03
21828;BME280;11076;47.942;11.804;2023-07-31T09:58:34;94278.44;;;24.13;49.46
21828;BME280;11076;47.942;11.804;2023-07-31T10:03:37;94274.00;;;23.76;49.62
21828;BME280;11076;47.942;11.804;2023-07-31T10:08:41;94262.31;;;23.34;49.88
21828;BME280;11076;47.942;11.804;2023-07-31T10:13:44;94238.34;;;23.58;48.92
21828;BME280;11076;47.942;11.804;2023-07-31T10:18:47;94230.56;;;23.52;49.06
21828;BME280;11076;47.942;11.804;2023-07-31T10:23:51;94241.19;;;22.93;49.23
21828;BME280;11076;47.942;11.804;2023-07-31T10:28:54;94238.97;;;22.29;49.57
21828;BME280;11076;47.942;11.804;2023-07-31T10:33:57;94225.28;;;23.00;49.10
21828;BME280;11076;47.942;11.804;2023-07-31T10:39:03;94207.91;;;23.65;48.19
21828;BME280;11076;47.942;11.804;2023-07-31T10:44:07;94205.66;;;23.95;46.43
21828;BME280;11076;47.942;11.804;2023-07-31T10:49:09;94210.75;;;23.60;45.44
21828;BME280;11076;47.942;11.804;2023-07-31T10:54:12;94200.06;;;24.14;46.44
21828;BME280;11076;47.942;11.804;2023-07-31T10:59:16;94201.47;;;25.10;44.72
21828;BME280;11076;47.942;11.804;2023-07-31T11:04:26;94195.63;;;25.83;43.27
21828;BME280;11076;47.942;11.804;2023-07-31T11:09:30;94184.28;;;25.58;43.72
21828;BME280;11076;47.942;11.804;2023-07-31T11:14:34;94174.91;;;25.91;44.06
21828;BME280;11076;47.942;11.804;2023-07-31T11:19:37;94174.53;;;25.75;43.45
21828;BME280;11076;47.942;11.804;2023-07-31T11:24:40;94169.91;;;26.02;41.49
21828;BME280;11076;47.942;11.804;2023-07-31T11:29:42;94165.56;;;26.27;42.91
21828;BME280;11076;47.942;11.804;2023-07-31T11:34:54;94167.97;;;25.93;42.36
21828;BME280;11076;47.942;11.804;2023-07-31T11:40:00;94150.91;;;26.05;41.29
21828;BME280;11076;47.942;11.804;2023-07-31T11:45:09;94152.44;;;25.80;41.32
21828;BME280;11076;47.942;11.804;2023-07-31T11:50:12;94146.28;;;24.99;42.37
21828;BME280;11076;47.942;11.804;2023-07-31T11:55:15;94133.00;;;24.53;42.58
21828;BME280;11076;47.942;11.804;2023-07-31T12:00:18;94120.91;;;24.76;41.72
21828;BME280;11076;47.942;11.804;2023-07-31T12:05:22;94103.97;;;24.97;42.03
21828;BME280;11076;47.942;11.804;2023-07-31T12:10:33;94104.69;;;24.80;42.29
21828;BME280;11076;47.942;11.804;2023-07-31T12:15:43;94097.38;;;24.98;42.77
21828;BME280;11076;47.942;11.804;2023-07-31T12:20:47;94085.84;;;25.18;42.36
21828;BME280;11076;47.942;11.804;2023-07-31T12:26:12;94080.25;;;25.32;41.62
21828;BME280;11076;47.942;11.804;2023-07-31T12:31:21;94068.22;;;25.33;40.68
21828;BME280;11076;47.942;11.804;2023-07-31T12:36:24;94044.56;;;25.64;40.71
21828;BME280;11076;47.942;11.804;2023-07-31T12:41:26;94046.00;;;25.87;40.07
21828;BME280;11076;47.942;11.804;2023-07-31T12:46:29;94051.50;;;25.96;38.78
21828;BME280;11076;47.942;11.804;2023-07-31T12:51:31;94032.63;;;26.12;37.79
21828;BME280;11076;47.942;11.804;2023-07-31T12:56:34;94037.75;;;26.31;37.49
21828;BME280;11076;47.942;11.804;2023-07-31T13:01:36;94023.63;;;26.67;37.50
21828;BME280;11076;47.942;11.804;2023-07-31T13:06:39;94024.63;;;26.45;36.34
21828;BME280;11076;47.942;11.804;2023-07-31T13:11:42;94018.63;;;26.52;37.81
21828;BME280;11076;47.942;11.804;2023-07-31T13:16:44;94008.31;;;26.66;35.55
21828;BME280;11076;47.942;11.804;2023-07-31T13:21:46;94015.91;;;26.61;34.69
21828;BME280;11076;47.942;11.804;2023-07-31T13:26:49;94005.38;;;26.71;34.41
21828;BME280;11076;47.942;11.804;2023-07-31T13:31:52;94009.25;;;26.70;33.78
21828;BME280;11076;47.942;11.804;2023-07-31T13:36:55;94000.28;;;26.44;32.88
21828;BME280;11076;47.942;11.804;2023-07-31T13:41:58;94017.91;;;27.62;33.08
21828;BME280;11076;47.942;11.804;2023-07-31T13:47:01;94010.16;;;26.83;30.67
21828;BME280;11076;47.942;11.804;2023-07-31T13:52:03;94000.06;;;26.19;32.64
21828;BME280;11076;47.942;11.804;2023-07-31T13:57:06;93992.31;;;26.21;32.79
21828;BME280;11076;47.942;11.804;2023-07-31T14:02:08;93987.19;;;26.11;33.85
21828;BME280;11076;47.942;11.804;2023-07-31T14:07:11;93983.66;;;26.02;34.20
21828;BME280;11076;47.942;11.804;2023-07-31T14:12:13;93971.56;;;26.11;34.60
21828;BME280;11076;47.942;11.804;2023-07-31T14:17:21;93977.06;;;25.76;34.24
21828;BME280;11076;47.942;11.804;2023-07-31T14:22:30;93985.16;;;26.85;34.59
21828;BME280;11076;47.942;11.804;2023-07-31T14:27:32;93981.53;;;27.65;33.90
21828;BME280;11076;47.942;11.804;2023-07-31T14:32:35;93974.53;;;27.34;34.86
21828;BME280;11076;47.942;11.804;2023-07-31T14:37:41;93977.78;;;26.76;34.43
21828;BME280;11076;47.942;11.804;2023-07-31T14:42:43;93967.69;;;26.89;35.10
21828;BME280;11076;47.942;11.804;2023-07-31T14:47:46;93956.47;;;26.82;35.54
21828;BME280;11076;47.942;11.804;2023-07-31T14:52:49;93955.06;;;26.67;35.06
21828;BME280;11076;47.942;11.804;2023-07-31T14:57:51;93946.53;;;26.69;35.28
21828;BME280;11076;47.942;11.804;2023-07-31T15:02:54;93958.13;;;26.66;33.46
21828;BME280;11076;47.942;11.804;2023-07-31T15:07:56;93959.22;;;25.96;33.50
21828;BME280;11076;47.942;11.804;2023-07-31T15:12:58;93946.38;;;25.53;35.51
21828;BME280;11076;47.942;11.804;2023-07-31T15:18:01;93951.97;;;25.74;35.67
21828;BME280;11076;47.942;11.804;2023-07-31T15:23:03;93943.84;;;26.13;34.46
21828;BME280;11076;47.942;11.804;2023-07-31T15:28:06;93941.59;;;26.06;35.16
21828;BME280;11076;47.942;11.804;2023-07-31T15:33:09;93938.13;;;26.95;34.85
21828;BME280;11076;47.942;11.804;2023-07-31T15:38:12;93937.00;;;27.26;33.54
21828;BME280;11076;47.942;11.804;2023-07-31T15:43:19;93934.84;;;26.81;33.91
21828;BME280;11076;47.942;11.804;2023-07-31T15:48:22;93940.16;;;26.09;35.31
21828;BME280;11076;47.942;11.804;2023-07-31T15:53:24;93937.66;;;25.69;36.45
21828;BME280;11076;47.942;11.804;2023-07-31T15:58:27;93938.03;;;25.41;36.81
21828;BME280;11076;47.942;11.804;2023-07-31T16:03:30;93949.25;;;25.13;37.48
21828;BME280;11076;47.942;11.804;2023-07-31T16:08:32;93937.03;;;25.02;37.84
21828;BME280;11076;47.942;11.804;2023-07-31T16:13:35;93937.38;;;25.27;37.66
21828;BME280;11076;47.942;11.804;2023-07-31T16:18:38;93929.63;;;25.46;37.61
21828;BME280;11076;47.942;11.804;2023-07-31T16:23:40;93928.19;;;25.49;37.90
21828;BME280;11076;47.942;11.804;2023-07-31T16:28:42;93925.44;;;24.88;38.19
21828;BME280;11076;47.942;11.804;2023-07-31T16:33:45;93925.81;;;24.46;39.26
21828;BME280;11076;47.942;11.804;2023-07-31T16:38:47;93928.06;;;24.44;40.11
21828;BME280;11076;47.942;11.804;2023-07-31T16:43:50;93918.22;;;24.34;41.64
21828;BME280;11076;47.942;11.804;2023-07-31T16:48:53;93907.72;;;24.19;42.87
21828;BME280;11076;47.942;11.804;2023-07-31T16:53:56;93928.34;;;23.94;44.10
21828;BME280;11076;47.942;11.804;2023-07-31T16:58:59;93914.78;;;23.80;43.99
21828;BME280;11076;47.942;11.804;2023-07-31T17:04:01;93920.72;;;23.59;44.76
21828;BME280;11076;47.942;11.804;2023-07-31T17:09:04;93911.81;;;23.45;45.21
21828;BME280;11076;47.942;11.804;2023-07-31T17:14:06;93915.19;;;23.42;45.33
21828;BME280;11076;47.942;11.804;2023-07-31T17:19:09;93914.81;;;23.35;45.45
21828;BME280;11076;47.942;11.804;2023-07-31T17:24:12;93910.34;;;23.39;45.13
21828;BME280;11076;47.942;11.804;2023-07-31T17:29:15;93902.72;;;23.27;45.39
21828;BME280;11076;47.942;11.804;2023-07-31T17:34:19;93901.94;;;23.27;45.13
21828;BME280;11076;47.942;11.804;2023-07-31T17:39:21;93900.69;;;23.10;45.55
21828;BME280;11076;47.942;11.804;2023-07-31T17:44:23;93892.34;;;22.93;45.31
21828;BME280;11076;47.942;11.804;2023-07-31T17:49:26;93901.84;;;22.81;45.53
21828;BME280;11076;47.942;11.804;2023-07-31T17:54:28;93900.38;;;22.75;45.65
21828;BME280;11076;47.942;11.804;2023-07-31T17:59:31;93904.53;;;22.59;45.64
21828;BME280;11076;47.942;11.804;2023-07-31T18:04:33;93894.44;;;22.59;46.01
21828;BME280;11076;47.942;11.804;2023-07-31T18:09:38;93890.88;;;22.36;45.83
21828;BME280;11076;47.942;11.804;2023-07-31T18:14:41;93880.88;;;22.04;46.49
21828;BME280;11076;47.942;11.804;2023-07-31T18:19:43;93884.22;;;21.87;47.26
21828;BME280;11076;47.942;11.804;2023-07-31T18:24:46;93887.13;;;21.77;47.66
21828;BME280;11076;47.942;11.804;2023-07-31T18:29:48;93885.78;;;21.60;48.45
21828;BME280;11076;47.942;11.804;2023-07-31T18:34:51;93876.88;;;21.41;48.19
21828;BME280;11076;47.942;11.804;2023-07-31T18:39:53;93881.25;;;21.23;48.55
21828;BME280;11076;47.942;11.804;2023-07-31T18:44:56;93869.94;;;21.16;49.06
21828;BME280;11076;47.942;11.804;2023-07-31T18:49:58;93875.34;;;21.02;49.37
21828;BME280;11076;47.942;11.804;2023-07-31T18:55:00;93869.63;;;20.84;49.97
21828;BME280;11076;47.942;11.804;2023-07-31T19:00:03;93877.88;;;20.79;50.44
21828;BME280;11076;47.942;11.804;2023-07-31T19:05:07;93873.19;;;20.66;51.16
21828;BME280;11076;47.942;11.804;2023-07-31T19:10:09;93881.19;;;20.33;51.68
21828;BME280;11076;47.942;11.804;2023-07-31T19:15:16;93875.81;;;20.09;52.67
21828;BME280;11076;47.942;11.804;2023-07-31T19:20:18;93878.44;;;19.71;54.22
21828;BME280;11076;47.942;11.804;2023-07-31T19:25:21;93875.75;;;19.42;54.59
21828;BME280;11076;47.942;11.804;2023-07-31T19:30:24;93881.63;;;19.20;55.69
21828;BME280;11076;47.942;11.804;2023-07-31T19:35:26;93877.13;;;19.10;56.34
21828;BME280;11076;47.942;11.804;2023-07-31T19:40:29;93873.88;;;19.08;56.59
21828;BME280;11076;47.942;11.804;2023-07-31T19:45:31;93873.56;;;18.75;58.05
21828;BME280;11076;47.942;11.804;2023-07-31T19:50:34;93881.50;;;18.61;58.45
21828;BME280;11076;47.942;11.804;2023-07-31T19:55:36;93875.75;;;18.73;58.58
21828;BME280;11076;47.942;11.804;2023-07-31T20:00:38;93874.03;;;18.87;58.76
21828;BME280;11076;47.942;11.804;2023-07-31T20:05:41;93875.16;;;19.16;58.57
21828;BME280;11076;47.942;11.804;2023-07-31T20:10:43;93874.25;;;19.25;57.89
21828;BME280;11076;47.942;11.804;2023-07-31T20:15:46;93865.91;;;19.22;57.93
21828;BME280;11076;47.942;11.804;2023-07-31T20:20:49;93865.47;;;19.10;58.49
21828;BME280;11076;47.942;11.804;2023-07-31T20:25:51;93857.63;;;19.08;58.88
21828;BME280;11076;47.942;11.804;2023-07-31T20:30:54;93857.03;;;19.16;58.89
21828;BME280;11076;47.942;11.804;2023-07-31T20:35:56;93856.00;;;19.07;59.38
21828;BME280;11076;47.942;11.804;2023-07-31T20:40:58;93841.84;;;19.15;59.27
21828;BME280;11076;47.942;11.804;2023-07-31T20:46:01;93831.41;;;19.27;58.82
21828;BME280;11076;47.942;11.804;2023-07-31T20:51:03;93828.81;;;19.17;59.20
21828;BME280;11076;47.942;11.804;2023-07-31T20:56:06;93824.09;;;19.04;59.88
21828;BME280;11076;47.942;11.804;2023-07-31T21:01:08;93828.38;;;19.10;59.36
21828;BME280;11076;47.942;11.804;2023-07-31T21:06:11;93818.56;;;19.14;59.08
21828;BME280;11076;47.942;11.804;2023-07-31T21:11:14;93818.22;;;19.21;58.18
21828;BME280;11076;47.942;11.804;2023-07-31T21:16:17;93811.88;;;19.31;57.67
21828;BME280;11076;47.942;11.804;2023-07-31T21:21:20;93799.66;;;19.33;57.24
21828;BME280;11076;47.942;11.804;2023-07-31T21:26:22;93797.34;;;19.21;57.30
21828;BME280;11076;47.942;11.804;2023-07-31T21:31:25;93799.25;;;19.21;57.35
21828;BME280;11076;47.942;11.804;2023-07-31T21:36:28;93788.66;;;19.24;57.13
21828;BME280;11076;47.942;11.804;2023-07-31T21:41:30;93788.59;;;19.30;56.99
21828;BME280;11076;47.942;11.804;2023-07-31T21:46:33;93785.81;;;19.11;57.81
21828;BME280;11076;47.942;11.804;2023-07-31T21:51:35;93777.75;;;19.30;57.46
21828;BME280;11076;47.942;11.804;2023-07-31T21:56:38;93772.97;;;19.21;57.25
21828;BME280;11076;47.942;11.804;2023-07-31T22:01:40;93773.03;;;19.16;57.50
21828;BME280;11076;47.942;11.804;2023-07-31T22:06:43;93766.34;;;19.33;57.38
21828;BME280;11076;47.942;11.804;2023-07-31T22:11:45;93755.84;;;19.26;57.29
21828;BME280;11076;47.942;11.804;2023-07-31T22:16:48;93745.53;;;19.28;57.33
21828;BME280;11076;47.942;11.804;2023-07-31T22:21:50;93740.44;;;19.21;57.81
21828;BME280;11076;47.942;11.804;2023-07-31T22:26:52;93737.84;;;19.11;57.79
21828;BME280;11076;47.942;11.804;2023-07-31T22:31:55;93732.94;;;18.89;58.66
21828;BME280;11076;47.942;11.804;2023-07-31T22:36:57;93736.31;;;19.05;58.83
21828;BME280;11076;47.942;11.804;2023-07-31T22:42:00;93730.38;;;19.03;59.37
21828;BME280;11076;47.942;11.804;2023-07-31T22:47:02;93716.78;;;19.08;59.13
21828;BME280;11076;47.942;11.804;2023-07-31T22:52:06;93708.81;;;19.17;58.42
21828;BME280;11076;47.942;11.804;2023-07-31T22:57:08;93688.97;;;19.21;58.55
21828;BME280;11076;47.942;11.804;2023-07-31T23:02:10;93677.28;;;19.02;59.97
21828;BME280;11076;47.942;11.804;2023-07-31T23:07:13;93684.59;;;19.01;60.38
21828;BME280;11076;47.942;11.804;2023-07-31T23:12:15;93688.66;;;19.04;60.33
21828;BME280;11076;47.942;11.804;2023-07-31T23:17:18;93675.41;;;19.02;59.90
21828;BME280;11076;47.942;11.804;2023-07-31T23:22:20;93677.22;;;19.07;59.78
21828;BME280;11076;47.942;11.804;2023-07-31T23:27:22;93670.88;;;19.17;59.26
21828;BME280;11076;47.942;11.804;2023-07-31T23:32:25;93657.63;;;19.15;59.92
21828;BME280;11076;47.942;11.804;2023-07-31T23:37:27;93665.59;;;19.06;60.06
21828;BME280;11076;47.942;11.804;2023-07-31T23:42:30;93668.75;;;18.90;61.16
21828;BME280;11076;47.942;11.804;2023-07-31T23:47:33;93657.13;;;18.89;61.65
21828;BME280;11076;47.942;11.804;2023-07-31T23:52:35;93638.97;;;18.90;61.95
21828;BME280;11076;47.942;11.804;2023-07-31T23:57:38;93639.06;;;19.03;62.00
